Terminal Aerodrome Forecast
Issued by NWS

Home | Current Version | Previous Version | Text Only | Print | Product List | Glossary On
Versions: 1 2 3 4 5 6 7 8 9 10 11 12 13 14 15
000
FTUS46 KSEW 201700
TAFBLI
TAF
KBLI 201727Z 2018/2118 17010G18KT P6SM -RA OVC020
      TEMPO 2018/2021 4SM RA BR OVC015
     FM202100 17006KT P6SM -SHRA OVC040
     FM210000 15005KT P6SM -SHRA BKN040 OVC060
     FM211200 15010KT P6SM VCSH OVC035=

USA.gov is the U.S. government's official web portal to all federal, state and local government web resources and services.